Terminal Aerodrome Forecast
Issued by NWS

Home | Current Version | Previous Version | Text Only | Print | Product List | Glossary On
Versions: 1 2 3 4 5 6 7 8 9 10 11 12 13 14 15
000
FTUS41 KPHI 172300
TAFMIV
TAF
KMIV 172320Z 1800/1824 00000KT P6SM SKC
      TEMPO 1809/1811 5SM BR
     FM181400 32005KT P6SM SCT050
     FM182300 00000KT P6SM SKC=

USA.gov is the U.S. government's official web portal to all federal, state and local government web resources and services.